sensor_id;sensor_type;location;lat;lon;timestamp;P1;durP1;ratioP1;P2;durP2;ratioP2
15466;SDS011;7834;49.452;11.056;2022-12-18T00:01:36;100.53;;;49.50;;
15466;SDS011;7834;49.452;11.056;2022-12-18T00:04:04;74.40;;;40.23;;
15466;SDS011;7834;49.452;11.056;2022-12-18T00:06:30;114.83;;;51.07;;
15466;SDS011;7834;49.452;11.056;2022-12-18T00:08:58;89.07;;;46.73;;
15466;SDS011;7834;49.452;11.056;2022-12-18T00:11:25;98.60;;;48.60;;
15466;SDS011;7834;49.452;11.056;2022-12-18T00:13:53;87.83;;;44.40;;
15466;SDS011;7834;49.452;11.056;2022-12-18T00:16:20;79.47;;;42.53;;
15466;SDS011;7834;49.452;11.056;2022-12-18T00:18:47;92.53;;;46.30;;
15466;SDS011;7834;49.452;11.056;2022-12-18T00:21:13;98.00;;;47.57;;
15466;SDS011;7834;49.452;11.056;2022-12-18T00:23:41;92.43;;;45.83;;
15466;SDS011;7834;49.452;11.056;2022-12-18T00:26:09;84.97;;;46.27;;
15466;SDS011;7834;49.452;11.056;2022-12-18T00:28:35;93.30;;;46.93;;
15466;SDS011;7834;49.452;11.056;2022-12-18T00:33:28;95.50;;;48.33;;
15466;SDS011;7834;49.452;11.056;2022-12-18T00:35:54;96.87;;;48.33;;
15466;SDS011;7834;49.452;11.056;2022-12-18T00:38:20;100.90;;;49.63;;
15466;SDS011;7834;49.452;11.056;2022-12-18T00:40:46;91.93;;;47.63;;
15466;SDS011;7834;49.452;11.056;2022-12-18T00:43:12;97.63;;;48.47;;
15466;SDS011;7834;49.452;11.056;2022-12-18T00:45:38;99.17;;;47.60;;
15466;SDS011;7834;49.452;11.056;2022-12-18T00:48:04;85.27;;;42.27;;
15466;SDS011;7834;49.452;11.056;2022-12-18T00:50:30;81.77;;;43.27;;
15466;SDS011;7834;49.452;11.056;2022-12-18T00:52:56;91.37;;;43.77;;
15466;SDS011;7834;49.452;11.056;2022-12-18T00:55:22;80.83;;;43.53;;
15466;SDS011;7834;49.452;11.056;2022-12-18T00:57:48;87.50;;;43.83;;
15466;SDS011;7834;49.452;11.056;2022-12-18T01:00:17;87.30;;;44.37;;
15466;SDS011;7834;49.452;11.056;2022-12-18T01:02:43;82.47;;;42.07;;
15466;SDS011;7834;49.452;11.056;2022-12-18T01:05:10;86.93;;;42.00;;
15466;SDS011;7834;49.452;11.056;2022-12-18T01:07:36;86.50;;;41.47;;
15466;SDS011;7834;49.452;11.056;2022-12-18T01:10:03;71.97;;;38.97;;
15466;SDS011;7834;49.452;11.056;2022-12-18T01:12:29;77.30;;;39.37;;
15466;SDS011;7834;49.452;11.056;2022-12-18T01:14:55;75.80;;;39.33;;
15466;SDS011;7834;49.452;11.056;2022-12-18T01:17:21;66.33;;;36.07;;
15466;SDS011;7834;49.452;11.056;2022-12-18T01:19:47;65.37;;;35.63;;
15466;SDS011;7834;49.452;11.056;2022-12-18T01:22:13;85.20;;;39.83;;
15466;SDS011;7834;49.452;11.056;2022-12-18T01:24:39;61.37;;;30.77;;
15466;SDS011;7834;49.452;11.056;2022-12-18T01:27:05;61.97;;;32.50;;
15466;SDS011;7834;49.452;11.056;2022-12-18T01:29:31;65.80;;;33.07;;
15466;SDS011;7834;49.452;11.056;2022-12-18T01:31:57;67.80;;;35.90;;
15466;SDS011;7834;49.452;11.056;2022-12-18T01:34:23;61.20;;;31.43;;
15466;SDS011;7834;49.452;11.056;2022-12-18T01:36:50;72.57;;;33.00;;
15466;SDS011;7834;49.452;11.056;2022-12-18T01:39:17;62.70;;;32.90;;
15466;SDS011;7834;49.452;11.056;2022-12-18T01:41:44;71.20;;;32.63;;
15466;SDS011;7834;49.452;11.056;2022-12-18T01:47:18;66.33;;;32.20;;
15466;SDS011;7834;49.452;11.056;2022-12-18T01:49:44;67.90;;;31.53;;
15466;SDS011;7834;49.452;11.056;2022-12-18T01:52:10;68.97;;;32.73;;
15466;SDS011;7834;49.452;11.056;2022-12-18T01:54:36;66.33;;;32.50;;
15466;SDS011;7834;49.452;11.056;2022-12-18T01:57:02;71.37;;;33.10;;
15466;SDS011;7834;49.452;11.056;2022-12-18T01:59:28;66.97;;;31.77;;
15466;SDS011;7834;49.452;11.056;2022-12-18T02:01:55;68.77;;;32.03;;
15466;SDS011;7834;49.452;11.056;2022-12-18T02:04:25;62.27;;;30.43;;
15466;SDS011;7834;49.452;11.056;2022-12-18T02:07:15;57.80;;;30.07;;
15466;SDS011;7834;49.452;11.056;2022-12-18T02:09:48;64.33;;;30.70;;
15466;SDS011;7834;49.452;11.056;2022-12-18T02:12:17;66.73;;;30.80;;
15466;SDS011;7834;49.452;11.056;2022-12-18T02:14:47;62.00;;;30.10;;
15466;SDS011;7834;49.452;11.056;2022-12-18T02:17:23;63.63;;;29.23;;
15466;SDS011;7834;49.452;11.056;2022-12-18T02:22:24;67.23;;;30.63;;
15466;SDS011;7834;49.452;11.056;2022-12-18T02:27:25;62.60;;;28.90;;
15466;SDS011;7834;49.452;11.056;2022-12-18T02:29:52;76.63;;;29.83;;
15466;SDS011;7834;49.452;11.056;2022-12-18T02:32:26;77.83;;;30.63;;
15466;SDS011;7834;49.452;11.056;2022-12-18T02:34:54;79.73;;;30.90;;
15466;SDS011;7834;49.452;11.056;2022-12-18T02:37:21;75.27;;;28.90;;
15466;SDS011;7834;49.452;11.056;2022-12-18T02:39:48;83.33;;;30.93;;
15466;SDS011;7834;49.452;11.056;2022-12-18T02:42:14;78.33;;;29.20;;
15466;SDS011;7834;49.452;11.056;2022-12-18T02:44:42;74.17;;;30.47;;
15466;SDS011;7834;49.452;11.056;2022-12-18T02:47:10;71.40;;;29.63;;
15466;SDS011;7834;49.452;11.056;2022-12-18T02:49:44;85.50;;;31.80;;
15466;SDS011;7834;49.452;11.056;2022-12-18T02:52:25;72.03;;;28.47;;
15466;SDS011;7834;49.452;11.056;2022-12-18T02:57:24;78.83;;;30.90;;
15466;SDS011;7834;49.452;11.056;2022-12-18T03:02:23;72.27;;;29.20;;
15466;SDS011;7834;49.452;11.056;2022-12-18T03:05:01;80.07;;;30.60;;
15466;SDS011;7834;49.452;11.056;2022-12-18T03:07:33;69.60;;;28.57;;
15466;SDS011;7834;49.452;11.056;2022-12-18T03:10:01;67.70;;;27.67;;
15466;SDS011;7834;49.452;11.056;2022-12-18T03:12:31;75.13;;;28.17;;
15466;SDS011;7834;49.452;11.056;2022-12-18T03:15:13;70.90;;;27.60;;
15466;SDS011;7834;49.452;11.056;2022-12-18T03:17:41;64.47;;;26.87;;
15466;SDS011;7834;49.452;11.056;2022-12-18T03:20:12;59.10;;;25.40;;
15466;SDS011;7834;49.452;11.056;2022-12-18T03:22:38;65.00;;;27.00;;
15466;SDS011;7834;49.452;11.056;2022-12-18T03:25:07;55.70;;;25.33;;
15466;SDS011;7834;49.452;11.056;2022-12-18T03:27:36;57.10;;;24.83;;
15466;SDS011;7834;49.452;11.056;2022-12-18T03:30:04;56.90;;;24.23;;
15466;SDS011;7834;49.452;11.056;2022-12-18T03:32:42;58.03;;;24.50;;
15466;SDS011;7834;49.452;11.056;2022-12-18T03:35:10;53.27;;;23.33;;
15466;SDS011;7834;49.452;11.056;2022-12-18T03:37:37;62.97;;;24.60;;
15466;SDS011;7834;49.452;11.056;2022-12-18T03:40:03;55.80;;;24.63;;
15466;SDS011;7834;49.452;11.056;2022-12-18T03:42:52;55.43;;;24.47;;
15466;SDS011;7834;49.452;11.056;2022-12-18T03:47:46;53.43;;;23.37;;
15466;SDS011;7834;49.452;11.056;2022-12-18T03:50:19;56.10;;;23.77;;
15466;SDS011;7834;49.452;11.056;2022-12-18T03:55:32;50.70;;;23.33;;
15466;SDS011;7834;49.452;11.056;2022-12-18T03:58:00;53.57;;;23.10;;
15466;SDS011;7834;49.452;11.056;2022-12-18T04:00:27;46.67;;;22.10;;
15466;SDS011;7834;49.452;11.056;2022-12-18T04:02:54;53.43;;;23.10;;
15466;SDS011;7834;49.452;11.056;2022-12-18T04:05:21;50.50;;;22.37;;
15466;SDS011;7834;49.452;11.056;2022-12-18T04:07:48;49.57;;;22.43;;
15466;SDS011;7834;49.452;11.056;2022-12-18T04:10:15;42.60;;;21.13;;
15466;SDS011;7834;49.452;11.056;2022-12-18T04:12:42;39.03;;;19.97;;
15466;SDS011;7834;49.452;11.056;2022-12-18T04:15:08;50.30;;;23.00;;
15466;SDS011;7834;49.452;11.056;2022-12-18T04:17:34;43.40;;;20.87;;
15466;SDS011;7834;49.452;11.056;2022-12-18T04:20:00;45.20;;;20.90;;
15466;SDS011;7834;49.452;11.056;2022-12-18T04:22:26;44.23;;;20.77;;
15466;SDS011;7834;49.452;11.056;2022-12-18T04:24:53;40.80;;;20.10;;
15466;SDS011;7834;49.452;11.056;2022-12-18T04:27:19;43.20;;;20.30;;
15466;SDS011;7834;49.452;11.056;2022-12-18T04:29:45;44.47;;;20.07;;
15466;SDS011;7834;49.452;11.056;2022-12-18T04:32:11;40.60;;;19.90;;
15466;SDS011;7834;49.452;11.056;2022-12-18T04:34:37;41.13;;;19.57;;
15466;SDS011;7834;49.452;11.056;2022-12-18T04:37:03;39.90;;;19.27;;
15466;SDS011;7834;49.452;11.056;2022-12-18T04:39:29;39.37;;;19.07;;
15466;SDS011;7834;49.452;11.056;2022-12-18T04:41:55;40.10;;;19.37;;
15466;SDS011;7834;49.452;11.056;2022-12-18T04:44:21;36.57;;;19.17;;
15466;SDS011;7834;49.452;11.056;2022-12-18T04:46:47;38.90;;;18.27;;
15466;SDS011;7834;49.452;11.056;2022-12-18T04:49:13;40.90;;;18.97;;
15466;SDS011;7834;49.452;11.056;2022-12-18T04:51:39;38.53;;;19.37;;
15466;SDS011;7834;49.452;11.056;2022-12-18T04:54:05;41.83;;;19.93;;
15466;SDS011;7834;49.452;11.056;2022-12-18T04:56:31;42.10;;;19.03;;
15466;SDS011;7834;49.452;11.056;2022-12-18T04:58:57;38.60;;;18.67;;
15466;SDS011;7834;49.452;11.056;2022-12-18T05:01:23;39.03;;;19.47;;
15466;SDS011;7834;49.452;11.056;2022-12-18T05:03:50;41.53;;;18.83;;
15466;SDS011;7834;49.452;11.056;2022-12-18T05:06:16;39.47;;;19.10;;
15466;SDS011;7834;49.452;11.056;2022-12-18T05:08:43;41.47;;;19.33;;
15466;SDS011;7834;49.452;11.056;2022-12-18T05:11:09;37.70;;;19.00;;
15466;SDS011;7834;49.452;11.056;2022-12-18T05:13:36;38.90;;;18.70;;
15466;SDS011;7834;49.452;11.056;2022-12-18T05:16:03;38.00;;;19.20;;
15466;SDS011;7834;49.452;11.056;2022-12-18T05:18:29;39.20;;;19.07;;
15466;SDS011;7834;49.452;11.056;2022-12-18T05:20:55;39.50;;;19.33;;
15466;SDS011;7834;49.452;11.056;2022-12-18T05:23:22;39.87;;;18.87;;
15466;SDS011;7834;49.452;11.056;2022-12-18T05:26:01;38.53;;;18.87;;
15466;SDS011;7834;49.452;11.056;2022-12-18T05:28:29;37.53;;;17.90;;
15466;SDS011;7834;49.452;11.056;2022-12-18T05:30:56;39.53;;;19.13;;
15466;SDS011;7834;49.452;11.056;2022-12-18T05:33:23;38.43;;;18.67;;
15466;SDS011;7834;49.452;11.056;2022-12-18T05:35:56;38.27;;;19.70;;
15466;SDS011;7834;49.452;11.056;2022-12-18T05:38:23;36.20;;;18.30;;
15466;SDS011;7834;49.452;11.056;2022-12-18T05:40:49;36.13;;;18.50;;
15466;SDS011;7834;49.452;11.056;2022-12-18T05:43:16;37.77;;;18.47;;
15466;SDS011;7834;49.452;11.056;2022-12-18T05:45:42;40.70;;;18.83;;
15466;SDS011;7834;49.452;11.056;2022-12-18T05:48:08;37.27;;;18.27;;
15466;SDS011;7834;49.452;11.056;2022-12-18T05:50:38;37.87;;;18.80;;
15466;SDS011;7834;49.452;11.056;2022-12-18T05:53:05;36.27;;;18.17;;
15466;SDS011;7834;49.452;11.056;2022-12-18T05:55:34;37.83;;;18.80;;
15466;SDS011;7834;49.452;11.056;2022-12-18T05:58:01;39.37;;;18.60;;
15466;SDS011;7834;49.452;11.056;2022-12-18T06:00:27;36.93;;;18.23;;
15466;SDS011;7834;49.452;11.056;2022-12-18T06:02:53;38.00;;;19.10;;
15466;SDS011;7834;49.452;11.056;2022-12-18T06:05:19;37.37;;;18.47;;
15466;SDS011;7834;49.452;11.056;2022-12-18T06:07:45;39.10;;;18.10;;
15466;SDS011;7834;49.452;11.056;2022-12-18T06:10:11;38.67;;;18.30;;
15466;SDS011;7834;49.452;11.056;2022-12-18T06:12:37;40.90;;;18.77;;
15466;SDS011;7834;49.452;11.056;2022-12-18T06:15:03;36.37;;;17.53;;
15466;SDS011;7834;49.452;11.056;2022-12-18T06:17:30;36.77;;;17.77;;
15466;SDS011;7834;49.452;11.056;2022-12-18T06:19:56;36.17;;;17.33;;
15466;SDS011;7834;49.452;11.056;2022-12-18T06:22:22;42.40;;;18.10;;
15466;SDS011;7834;49.452;11.056;2022-12-18T06:24:48;34.13;;;17.20;;
15466;SDS011;7834;49.452;11.056;2022-12-18T06:27:14;37.03;;;17.37;;
15466;SDS011;7834;49.452;11.056;2022-12-18T06:29:40;36.80;;;17.90;;
15466;SDS011;7834;49.452;11.056;2022-12-18T06:32:06;39.30;;;18.37;;
15466;SDS011;7834;49.452;11.056;2022-12-18T06:34:33;40.47;;;18.60;;
15466;SDS011;7834;49.452;11.056;2022-12-18T06:36:59;37.27;;;17.60;;
15466;SDS011;7834;49.452;11.056;2022-12-18T06:39:28;37.33;;;17.33;;
15466;SDS011;7834;49.452;11.056;2022-12-18T06:41:54;38.20;;;17.10;;
15466;SDS011;7834;49.452;11.056;2022-12-18T06:44:20;38.43;;;17.83;;
15466;SDS011;7834;49.452;11.056;2022-12-18T06:46:46;36.27;;;17.20;;
15466;SDS011;7834;49.452;11.056;2022-12-18T06:49:12;37.83;;;17.57;;
15466;SDS011;7834;49.452;11.056;2022-12-18T06:51:38;39.00;;;18.03;;
15466;SDS011;7834;49.452;11.056;2022-12-18T06:54:04;39.43;;;18.50;;
15466;SDS011;7834;49.452;11.056;2022-12-18T06:56:31;38.00;;;18.63;;
15466;SDS011;7834;49.452;11.056;2022-12-18T06:58:57;38.83;;;17.53;;
15466;SDS011;7834;49.452;11.056;2022-12-18T07:01:23;34.97;;;17.30;;
15466;SDS011;7834;49.452;11.056;2022-12-18T07:03:52;37.97;;;17.93;;
15466;SDS011;7834;49.452;11.056;2022-12-18T07:06:19;37.10;;;17.43;;
15466;SDS011;7834;49.452;11.056;2022-12-18T07:08:46;41.07;;;17.77;;
15466;SDS011;7834;49.452;11.056;2022-12-18T07:11:12;41.93;;;19.03;;
15466;SDS011;7834;49.452;11.056;2022-12-18T07:13:38;38.57;;;17.90;;
15466;SDS011;7834;49.452;11.056;2022-12-18T07:16:14;40.57;;;18.00;;
15466;SDS011;7834;49.452;11.056;2022-12-18T07:18:40;34.13;;;16.93;;
15466;SDS011;7834;49.452;11.056;2022-12-18T07:21:08;37.03;;;17.13;;
15466;SDS011;7834;49.452;11.056;2022-12-18T07:23:34;36.27;;;17.60;;
15466;SDS011;7834;49.452;11.056;2022-12-18T07:26:08;41.33;;;17.90;;
15466;SDS011;7834;49.452;11.056;2022-12-18T07:28:35;35.40;;;16.93;;
15466;SDS011;7834;49.452;11.056;2022-12-18T07:31:08;39.10;;;18.33;;
15466;SDS011;7834;49.452;11.056;2022-12-18T07:33:35;37.17;;;18.07;;
15466;SDS011;7834;49.452;11.056;2022-12-18T07:36:02;41.33;;;19.20;;
15466;SDS011;7834;49.452;11.056;2022-12-18T07:38:29;38.77;;;18.33;;
15466;SDS011;7834;49.452;11.056;2022-12-18T07:41:00;37.93;;;18.10;;
15466;SDS011;7834;49.452;11.056;2022-12-18T07:43:26;38.40;;;18.23;;
15466;SDS011;7834;49.452;11.056;2022-12-18T07:45:52;35.30;;;17.60;;
15466;SDS011;7834;49.452;11.056;2022-12-18T07:48:18;41.00;;;19.00;;
15466;SDS011;7834;49.452;11.056;2022-12-18T07:50:44;40.00;;;19.07;;
15466;SDS011;7834;49.452;11.056;2022-12-18T07:53:10;43.50;;;19.17;;
15466;SDS011;7834;49.452;11.056;2022-12-18T07:55:36;39.27;;;18.33;;
15466;SDS011;7834;49.452;11.056;2022-12-18T07:58:03;44.33;;;19.57;;
15466;SDS011;7834;49.452;11.056;2022-12-18T08:00:30;37.70;;;18.67;;
15466;SDS011;7834;49.452;11.056;2022-12-18T08:02:56;42.00;;;19.37;;
15466;SDS011;7834;49.452;11.056;2022-12-18T08:05:22;40.57;;;19.30;;
15466;SDS011;7834;49.452;11.056;2022-12-18T08:07:48;40.50;;;18.10;;
15466;SDS011;7834;49.452;11.056;2022-12-18T08:10:14;37.23;;;18.03;;
15466;SDS011;7834;49.452;11.056;2022-12-18T08:12:40;40.83;;;18.83;;
15466;SDS011;7834;49.452;11.056;2022-12-18T08:15:07;39.60;;;18.70;;
15466;SDS011;7834;49.452;11.056;2022-12-18T08:17:33;37.90;;;18.10;;
15466;SDS011;7834;49.452;11.056;2022-12-18T08:19:59;40.73;;;19.57;;
15466;SDS011;7834;49.452;11.056;2022-12-18T08:22:25;42.83;;;19.03;;
15466;SDS011;7834;49.452;11.056;2022-12-18T08:24:51;37.37;;;18.60;;
15466;SDS011;7834;49.452;11.056;2022-12-18T08:27:17;40.43;;;19.40;;
15466;SDS011;7834;49.452;11.056;2022-12-18T08:29:43;41.07;;;18.83;;
15466;SDS011;7834;49.452;11.056;2022-12-18T08:32:09;38.73;;;19.03;;
15466;SDS011;7834;49.452;11.056;2022-12-18T08:34:35;40.80;;;19.23;;
15466;SDS011;7834;49.452;11.056;2022-12-18T08:37:01;41.90;;;19.20;;
15466;SDS011;7834;49.452;11.056;2022-12-18T08:39:27;41.43;;;19.13;;
15466;SDS011;7834;49.452;11.056;2022-12-18T08:41:53;39.23;;;19.57;;
15466;SDS011;7834;49.452;11.056;2022-12-18T08:44:38;37.23;;;18.07;;
15466;SDS011;7834;49.452;11.056;2022-12-18T08:47:07;37.90;;;18.27;;
15466;SDS011;7834;49.452;11.056;2022-12-18T08:49:34;35.70;;;17.30;;
15466;SDS011;7834;49.452;11.056;2022-12-18T08:52:00;33.43;;;17.20;;
15466;SDS011;7834;49.452;11.056;2022-12-18T08:54:28;36.33;;;17.70;;
15466;SDS011;7834;49.452;11.056;2022-12-18T08:56:54;35.53;;;17.47;;
15466;SDS011;7834;49.452;11.056;2022-12-18T08:59:20;35.50;;;18.40;;
15466;SDS011;7834;49.452;11.056;2022-12-18T09:01:48;36.97;;;17.70;;
15466;SDS011;7834;49.452;11.056;2022-12-18T09:04:14;36.83;;;17.70;;
15466;SDS011;7834;49.452;11.056;2022-12-18T09:06:40;36.80;;;18.53;;
15466;SDS011;7834;49.452;11.056;2022-12-18T09:09:06;35.63;;;18.40;;
15466;SDS011;7834;49.452;11.056;2022-12-18T09:11:32;33.50;;;16.67;;
15466;SDS011;7834;49.452;11.056;2022-12-18T09:13:59;33.47;;;16.73;;
15466;SDS011;7834;49.452;11.056;2022-12-18T09:16:26;29.67;;;16.33;;
15466;SDS011;7834;49.452;11.056;2022-12-18T09:18:53;35.33;;;17.03;;
15466;SDS011;7834;49.452;11.056;2022-12-18T09:21:24;32.57;;;17.00;;
15466;SDS011;7834;49.452;11.056;2022-12-18T09:23:51;31.77;;;16.57;;
15466;SDS011;7834;49.452;11.056;2022-12-18T09:26:17;36.30;;;17.70;;
15466;SDS011;7834;49.452;11.056;2022-12-18T09:28:43;35.83;;;17.73;;
15466;SDS011;7834;49.452;11.056;2022-12-18T09:31:11;34.93;;;16.97;;
15466;SDS011;7834;49.452;11.056;2022-12-18T09:33:40;37.33;;;18.37;;
15466;SDS011;7834;49.452;11.056;2022-12-18T09:36:07;33.50;;;17.93;;
15466;SDS011;7834;49.452;11.056;2022-12-18T09:38:34;33.13;;;17.10;;
15466;SDS011;7834;49.452;11.056;2022-12-18T09:41:03;31.23;;;16.57;;
15466;SDS011;7834;49.452;11.056;2022-12-18T09:43:35;29.07;;;16.43;;
15466;SDS011;7834;49.452;11.056;2022-12-18T09:46:07;28.37;;;15.97;;
15466;SDS011;7834;49.452;11.056;2022-12-18T09:48:35;30.17;;;16.50;;
15466;SDS011;7834;49.452;11.056;2022-12-18T09:51:04;30.93;;;15.77;;
15466;SDS011;7834;49.452;11.056;2022-12-18T09:53:32;29.77;;;16.97;;
15466;SDS011;7834;49.452;11.056;2022-12-18T09:55:58;31.23;;;16.63;;
15466;SDS011;7834;49.452;11.056;2022-12-18T10:01:23;31.63;;;16.00;;
15466;SDS011;7834;49.452;11.056;2022-12-18T10:03:49;28.17;;;15.97;;
15466;SDS011;7834;49.452;11.056;2022-12-18T10:06:36;30.33;;;15.43;;
15466;SDS011;7834;49.452;11.056;2022-12-18T10:11:48;30.47;;;15.90;;
15466;SDS011;7834;49.452;11.056;2022-12-18T10:14:20;28.40;;;15.20;;
15466;SDS011;7834;49.452;11.056;2022-12-18T10:21:51;27.87;;;14.90;;
15466;SDS011;7834;49.452;11.056;2022-12-18T10:27:13;27.47;;;14.93;;
15466;SDS011;7834;49.452;11.056;2022-12-18T10:29:40;31.10;;;15.37;;
15466;SDS011;7834;49.452;11.056;2022-12-18T10:32:07;32.17;;;15.40;;
15466;SDS011;7834;49.452;11.056;2022-12-18T10:34:34;29.90;;;16.13;;
15466;SDS011;7834;49.452;11.056;2022-12-18T10:37:00;32.03;;;16.53;;
15466;SDS011;7834;49.452;11.056;2022-12-18T10:39:27;28.73;;;16.10;;
15466;SDS011;7834;49.452;11.056;2022-12-18T10:42:09;30.70;;;16.40;;
15466;SDS011;7834;49.452;11.056;2022-12-18T10:44:35;32.10;;;16.90;;
15466;SDS011;7834;49.452;11.056;2022-12-18T10:47:02;28.93;;;15.80;;
15466;SDS011;7834;49.452;11.056;2022-12-18T10:49:30;31.37;;;16.50;;
15466;SDS011;7834;49.452;11.056;2022-12-18T10:52:07;27.83;;;15.43;;
15466;SDS011;7834;49.452;11.056;2022-12-18T10:54:37;31.43;;;16.83;;
15466;SDS011;7834;49.452;11.056;2022-12-18T10:59:55;28.93;;;14.50;;
15466;SDS011;7834;49.452;11.056;2022-12-18T11:02:33;27.63;;;14.57;;
15466;SDS011;7834;49.452;11.056;2022-12-18T11:04:59;25.63;;;14.47;;
15466;SDS011;7834;49.452;11.056;2022-12-18T11:07:25;30.50;;;15.17;;
15466;SDS011;7834;49.452;11.056;2022-12-18T11:10:03;29.43;;;15.20;;
15466;SDS011;7834;49.452;11.056;2022-12-18T11:12:29;29.03;;;15.60;;
15466;SDS011;7834;49.452;11.056;2022-12-18T11:14:57;26.93;;;15.23;;
15466;SDS011;7834;49.452;11.056;2022-12-18T11:17:27;26.73;;;14.67;;
15466;SDS011;7834;49.452;11.056;2022-12-18T11:19:58;28.40;;;15.30;;
15466;SDS011;7834;49.452;11.056;2022-12-18T11:25:00;31.00;;;15.87;;
15466;SDS011;7834;49.452;11.056;2022-12-18T11:27:27;27.63;;;15.40;;
15466;SDS011;7834;49.452;11.056;2022-12-18T11:30:06;28.77;;;14.93;;
15466;SDS011;7834;49.452;11.056;2022-12-18T11:32:37;26.83;;;14.73;;
15466;SDS011;7834;49.452;11.056;2022-12-18T11:37:33;29.37;;;14.83;;
15466;SDS011;7834;49.452;11.056;2022-12-18T11:40:06;28.57;;;14.47;;
15466;SDS011;7834;49.452;11.056;2022-12-18T11:42:48;30.57;;;15.13;;
15466;SDS011;7834;49.452;11.056;2022-12-18T11:45:33;28.77;;;14.73;;
15466;SDS011;7834;49.452;11.056;2022-12-18T11:48:03;29.77;;;15.30;;
15466;SDS011;7834;49.452;11.056;2022-12-18T11:53:02;28.53;;;15.57;;
15466;SDS011;7834;49.452;11.056;2022-12-18T11:58:17;28.43;;;14.93;;
15466;SDS011;7834;49.452;11.056;2022-12-18T12:00:56;30.33;;;15.10;;
15466;SDS011;7834;49.452;11.056;2022-12-18T12:16:24;26.97;;;14.23;;
15466;SDS011;7834;49.452;11.056;2022-12-18T12:21:41;26.93;;;14.37;;
15466;SDS011;7834;49.452;11.056;2022-12-18T12:40:07;28.93;;;15.53;;
15466;SDS011;7834;49.452;11.056;2022-12-18T12:42:38;27.60;;;14.80;;
15466;SDS011;7834;49.452;11.056;2022-12-18T12:45:27;28.33;;;15.23;;
15466;SDS011;7834;49.452;11.056;2022-12-18T12:47:54;26.40;;;15.23;;
15466;SDS011;7834;49.452;11.056;2022-12-18T12:50:21;30.03;;;16.03;;
15466;SDS011;7834;49.452;11.056;2022-12-18T12:52:52;34.47;;;16.27;;
15466;SDS011;7834;49.452;11.056;2022-12-18T12:55:22;31.37;;;16.30;;
15466;SDS011;7834;49.452;11.056;2022-12-18T13:00:19;28.87;;;15.37;;
15466;SDS011;7834;49.452;11.056;2022-12-18T13:05:32;27.00;;;14.73;;
15466;SDS011;7834;49.452;11.056;2022-12-18T13:08:07;28.20;;;14.70;;
15466;SDS011;7834;49.452;11.056;2022-12-18T13:10:38;31.23;;;16.20;;
15466;SDS011;7834;49.452;11.056;2022-12-18T13:13:11;30.40;;;15.33;;
15466;SDS011;7834;49.452;11.056;2022-12-18T13:15:38;26.40;;;14.63;;
15466;SDS011;7834;49.452;11.056;2022-12-18T13:20:35;26.90;;;14.53;;
15466;SDS011;7834;49.452;11.056;2022-12-18T13:23:01;27.63;;;15.10;;
15466;SDS011;7834;49.452;11.056;2022-12-18T13:25:44;27.93;;;15.47;;
15466;SDS011;7834;49.452;11.056;2022-12-18T13:30:41;27.20;;;15.23;;
15466;SDS011;7834;49.452;11.056;2022-12-18T13:43:40;28.20;;;16.17;;
15466;SDS011;7834;49.452;11.056;2022-12-18T13:48:49;30.77;;;15.67;;
15466;SDS011;7834;49.452;11.056;2022-12-18T13:51:17;30.70;;;15.67;;
15466;SDS011;7834;49.452;11.056;2022-12-18T13:53:44;30.43;;;15.43;;
15466;SDS011;7834;49.452;11.056;2022-12-18T13:56:17;28.73;;;15.50;;
15466;SDS011;7834;49.452;11.056;2022-12-18T13:58:43;32.00;;;16.53;;
15466;SDS011;7834;49.452;11.056;2022-12-18T14:01:21;29.60;;;16.17;;
15466;SDS011;7834;49.452;11.056;2022-12-18T14:03:47;30.03;;;16.17;;
15466;SDS011;7834;49.452;11.056;2022-12-18T14:06:17;29.30;;;15.83;;
15466;SDS011;7834;49.452;11.056;2022-12-18T14:08:43;30.40;;;16.53;;
15466;SDS011;7834;49.452;11.056;2022-12-18T14:11:18;32.43;;;16.97;;
15466;SDS011;7834;49.452;11.056;2022-12-18T14:13:45;32.27;;;16.20;;
15466;SDS011;7834;49.452;11.056;2022-12-18T14:16:13;32.77;;;16.57;;
15466;SDS011;7834;49.452;11.056;2022-12-18T14:18:52;29.17;;;16.50;;
15466;SDS011;7834;49.452;11.056;2022-12-18T14:21:22;30.03;;;15.57;;
15466;SDS011;7834;49.452;11.056;2022-12-18T14:23:49;31.93;;;16.13;;
15466;SDS011;7834;49.452;11.056;2022-12-18T14:26:28;32.77;;;17.83;;
15466;SDS011;7834;49.452;11.056;2022-12-18T14:28:55;29.20;;;15.90;;
15466;SDS011;7834;49.452;11.056;2022-12-18T14:31:23;28.97;;;16.47;;
15466;SDS011;7834;49.452;11.056;2022-12-18T14:33:50;29.67;;;15.80;;
15466;SDS011;7834;49.452;11.056;2022-12-18T14:36:18;32.47;;;17.50;;
15466;SDS011;7834;49.452;11.056;2022-12-18T14:38:48;27.53;;;15.43;;
15466;SDS011;7834;49.452;11.056;2022-12-18T14:41:15;29.83;;;15.57;;
15466;SDS011;7834;49.452;11.056;2022-12-18T14:43:42;29.60;;;15.73;;
15466;SDS011;7834;49.452;11.056;2022-12-18T14:46:50;30.33;;;17.83;;
15466;SDS011;7834;49.452;11.056;2022-12-18T14:48:58;30.63;;;17.03;;
15466;SDS011;7834;49.452;11.056;2022-12-18T14:51:25;30.23;;;16.30;;
15466;SDS011;7834;49.452;11.056;2022-12-18T14:54:14;29.77;;;15.23;;
15466;SDS011;7834;49.452;11.056;2022-12-18T14:56:45;31.83;;;15.93;;
15466;SDS011;7834;49.452;11.056;2022-12-18T14:59:15;27.27;;;15.33;;
15466;SDS011;7834;49.452;11.056;2022-12-18T15:01:58;28.17;;;16.23;;
15466;SDS011;7834;49.452;11.056;2022-12-18T15:04:35;28.77;;;15.60;;
15466;SDS011;7834;49.452;11.056;2022-12-18T15:09:29;31.60;;;16.50;;
15466;SDS011;7834;49.452;11.056;2022-12-18T15:11:56;33.00;;;16.53;;
15466;SDS011;7834;49.452;11.056;2022-12-18T15:14:39;29.27;;;15.73;;
15466;SDS011;7834;49.452;11.056;2022-12-18T15:17:26;30.10;;;15.57;;
15466;SDS011;7834;49.452;11.056;2022-12-18T15:19:53;31.57;;;15.67;;
15466;SDS011;7834;49.452;11.056;2022-12-18T15:22:24;27.50;;;14.97;;
15466;SDS011;7834;49.452;11.056;2022-12-18T15:24:50;31.77;;;15.93;;
15466;SDS011;7834;49.452;11.056;2022-12-18T15:27:24;30.17;;;16.33;;
15466;SDS011;7834;49.452;11.056;2022-12-18T15:32:38;31.47;;;15.33;;
15466;SDS011;7834;49.452;11.056;2022-12-18T15:37:37;30.53;;;15.80;;
15466;SDS011;7834;49.452;11.056;2022-12-18T15:40:07;31.43;;;15.90;;
15466;SDS011;7834;49.452;11.056;2022-12-18T15:42:33;30.00;;;15.87;;
15466;SDS011;7834;49.452;11.056;2022-12-18T15:45:18;28.80;;;15.90;;
15466;SDS011;7834;49.452;11.056;2022-12-18T15:47:44;31.47;;;16.30;;
15466;SDS011;7834;49.452;11.056;2022-12-18T15:50:10;29.47;;;16.87;;
15466;SDS011;7834;49.452;11.056;2022-12-18T15:52:41;33.37;;;16.80;;
15466;SDS011;7834;49.452;11.056;2022-12-18T15:55:12;30.23;;;17.00;;
15466;SDS011;7834;49.452;11.056;2022-12-18T15:57:57;31.70;;;16.03;;
15466;SDS011;7834;49.452;11.056;2022-12-18T16:00:23;30.73;;;15.93;;
15466;SDS011;7834;49.452;11.056;2022-12-18T16:02:49;34.17;;;17.07;;
15466;SDS011;7834;49.452;11.056;2022-12-18T16:05:17;29.50;;;16.17;;
15466;SDS011;7834;49.452;11.056;2022-12-18T16:07:43;30.40;;;16.97;;
15466;SDS011;7834;49.452;11.056;2022-12-18T16:10:09;31.77;;;16.23;;
15466;SDS011;7834;49.452;11.056;2022-12-18T16:12:35;33.70;;;17.40;;
15466;SDS011;7834;49.452;11.056;2022-12-18T16:15:02;36.23;;;17.93;;
15466;SDS011;7834;49.452;11.056;2022-12-18T16:17:29;38.57;;;18.63;;
15466;SDS011;7834;49.452;11.056;2022-12-18T16:19:55;35.97;;;18.90;;